Time;durP1;ratioP1;P1;durP2;ratioP2;P2;SDS_P1;SDS_P2;PMS_P1;PMS_P2;Temp;Humidity;BMP_temperature;BMP_pressure;BME280_temperature;BME280_humidity;BME280_pressure;Samples;Min_cycle;Max_cycle;Signal;HPM_P1;HPM_P2
2022/08/18 00:01:17;;;;;;;15.73;10.45;;;;;;;21.43;60.25;98399.75;5059863;28;20032;-79
2022/08/18 00:03:44;;;;;;;17.77;14.27;;;;;;;20.81;63.58;98406.94;5052756;28;20039;-79
2022/08/18 00:06:09;;;;;;;8.20;7.40;;;;;;;21.29;57.66;98403.84;5059726;28;20048;-79
2022/08/18 00:08:34;;;;;;;8.80;7.90;;;;;;;21.50;57.21;98410.06;5049433;28;20032;-79
2022/08/18 00:11:00;;;;;;;8.02;7.15;;;;;;;21.63;56.73;98401.69;5059438;28;20384;-79
2022/08/18 00:13:26;;;;;;;11.82;9.82;;;;;;;21.00;62.33;98409.22;5046081;28;20036;-79
2022/08/18 00:15:51;;;;;;;9.48;8.57;;;;;;;21.61;57.21;98411.28;5053773;28;20043;-79
2022/08/18 00:18:17;;;;;;;10.45;7.72;;;;;;;21.71;56.71;98410.88;5049844;28;20056;-79
2022/08/18 00:20:42;;;;;;;9.68;8.55;;;;;;;21.75;56.55;98411.81;5057193;28;20025;-79
2022/08/18 00:23:08;;;;;;;9.95;8.93;;;;;;;21.82;56.58;98408.56;5054575;28;20044;-79
2022/08/18 00:25:33;;;;;;;11.32;8.85;;;;;;;21.73;56.79;98403.22;5053813;28;20029;-79
2022/08/18 00:27:59;;;;;;;15.07;13.50;;;;;;;21.43;60.92;98407.09;5050102;28;20029;-78
2022/08/18 00:30:24;;;;;;;11.68;10.13;;;;;;;21.10;59.24;98422.47;5029270;28;20063;-79
2022/08/18 00:32:57;;;;;;;12.00;10.27;;;;;;;21.25;58.46;98414.53;5056136;28;20115;-79
2022/08/18 00:35:26;;;;;;;10.85;9.50;;;;;;;21.47;57.50;98419.69;5061264;28;20025;-79
2022/08/18 00:37:54;;;;;;;14.90;13.40;;;;;;;20.97;62.68;98409.91;5057768;28;20086;-79
2022/08/18 00:40:23;;;;;;;12.65;9.75;;;;;;;21.32;58.03;98436.53;5060280;28;20029;-79
2022/08/18 00:42:56;;;;;;;15.60;13.88;;;;;;;21.40;58.86;98429.47;5064190;28;20500;-79
2022/08/18 00:45:27;;;;;;;11.32;9.98;;;;;;;21.67;57.30;98411.91;5059374;28;20025;-79
2022/08/18 00:47:54;;;;;;;16.35;12.40;;;;;;;21.40;58.41;98418.63;5058135;28;20488;-79
2022/08/18 00:50:51;;;;;;;11.20;10.10;;;;;;;21.33;59.26;98415.63;5059091;28;20481;-78
2022/08/18 00:53:26;;;;;;;11.38;10.27;;;;;;;20.57;61.98;98417.53;5058072;28;20279;-79
2022/08/18 00:55:53;;;;;;;11.63;10.38;;;;;;;21.05;58.94;98401.75;5053190;28;20043;-79
2022/08/18 00:58:26;;;;;;;18.20;14.88;;;;;;;21.19;61.79;98413.16;5051741;28;20082;-79
2022/08/18 01:00:52;;;;;;;14.00;10.23;;;;;;;20.88;59.85;98418.84;5059831;28;20472;-79
2022/08/18 01:03:20;;;;;;;14.15;11.38;;;;;;;21.28;58.79;98408.47;5055169;28;20039;-79
2022/08/18 01:06:00;;;;;;;26.67;22.77;;;;;;;20.90;64.89;98416.59;5056784;28;20056;-79
2022/08/18 01:08:26;;;;;;;10.30;9.30;;;;;;;20.95;59.64;98409.44;5054280;28;20385;-79
2022/08/18 01:10:53;;;;;;;13.82;10.70;;;;;;;21.23;58.74;98407.88;5054628;28;20062;-79
2022/08/18 01:13:19;;;;;;;12.45;10.68;;;;;;;21.33;58.47;98423.78;5054364;28;20090;-78
2022/08/18 01:15:45;;;;;;;12.57;11.27;;;;;;;21.19;58.99;98426.72;5039463;28;20039;-79
2022/08/18 01:24:06;;;;;;;28.67;25.20;;;;;;;20.06;68.55;98426.53;5056700;28;20072;-79
2022/08/18 01:26:36;;;;;;;24.85;20.60;;;;;;;19.58;69.84;98420.47;5051284;28;20079;-79
2022/08/18 01:29:10;;;;;;;28.63;24.38;;;;;;;19.57;70.07;98408.06;5052777;28;20036;-78
2022/08/18 01:31:39;;;;;;;12.93;11.70;;;;;;;20.30;62.27;98429.56;5055977;28;20107;-79
2022/08/18 01:34:07;;;;;;;13.65;10.85;;;;;;;20.62;60.89;98429.00;5049878;28;20033;-79
2022/08/18 01:36:39;;;;;;;29.67;22.83;;;;;;;20.61;64.41;98422.00;5054502;28;20408;-79
2022/08/18 01:39:10;;;;;;;13.32;11.80;;;;;;;20.64;60.58;98429.47;5050214;28;20036;-79
2022/08/18 01:41:36;;;;;;;16.77;14.90;;;;;;;20.80;62.45;98435.97;5055807;28;20032;-79
2022/08/18 01:44:02;;;;;;;33.83;24.95;;;;;;;19.64;69.18;98433.53;5052742;28;20430;-79
2022/08/18 01:46:30;;;;;;;13.98;12.52;;;;;;;20.39;62.05;98424.13;5057744;28;20036;-79
2022/08/18 01:49:00;;;;;;;15.52;13.70;;;;;;;20.54;61.29;98420.88;5054630;28;20059;-79
2022/08/18 01:51:28;;;;;;;13.32;11.95;;;;;;;20.53;61.26;98409.25;5043366;28;20028;-79
2022/08/18 01:53:54;;;;;;;13.95;12.57;;;;;;;20.79;60.25;98412.66;5055028;28;20114;-79
2022/08/18 01:56:19;;;;;;;13.57;12.27;;;;;;;20.64;60.44;98410.47;5055057;28;20024;-79
2022/08/18 01:58:48;;;;;;;15.35;13.57;;;;;;;20.73;60.20;98411.25;5049574;28;20025;-79
2022/08/18 02:01:14;;;;;;;14.18;12.77;;;;;;;20.91;60.38;98425.53;5058988;28;20081;-79
2022/08/18 02:03:48;;;;;;;14.20;12.70;;;;;;;20.95;59.55;98421.06;5038450;28;20051;-79
2022/08/18 02:06:17;;;;;;;15.25;13.65;;;;;;;21.07;60.12;98418.50;5058273;28;20500;-79
2022/08/18 02:08:43;;;;;;;17.05;13.18;;;;;;;21.07;59.74;98429.34;5052506;28;20539;-79
2022/08/18 02:11:08;;;;;;;15.80;13.73;;;;;;;21.13;59.92;98428.03;5058437;28;20127;-79
2022/08/18 02:13:34;;;;;;;15.80;13.65;;;;;;;21.14;59.74;98428.84;5056407;28;20098;-79
2022/08/18 02:16:00;;;;;;;17.38;15.50;;;;;;;20.89;60.02;98423.16;5058503;28;20443;-79
2022/08/18 02:18:29;;;;;;;18.92;15.02;;;;;;;20.82;60.47;98431.00;5055857;28;20068;-79
2022/08/18 02:20:57;;;;;;;15.63;13.88;;;;;;;20.75;60.27;98428.00;5055163;28;20062;-79
2022/08/18 02:23:23;;;;;;;15.30;13.68;;;;;;;21.05;60.11;98442.44;5065020;28;20039;-79
2022/08/18 02:25:49;;;;;;;16.98;15.30;;;;;;;21.03;59.92;98443.88;5048888;28;20036;-79
2022/08/18 02:28:14;;;;;;;17.02;15.18;;;;;;;21.01;60.16;98441.47;5050211;28;20466;-79
2022/08/18 02:30:41;;;;;;;19.02;15.07;;;;;;;20.88;60.34;98427.00;5060608;28;20029;-79
2022/08/18 02:33:08;;;;;;;38.70;31.63;;;;;;;20.77;63.05;98435.84;5054539;28;20098;-79
2022/08/18 02:35:34;;;;;;;20.35;18.02;;;;;;;20.68;60.93;98421.50;5063730;28;20074;-79
2022/08/18 02:38:01;;;;;;;19.40;16.55;;;;;;;20.81;60.78;98420.50;5054586;28;20060;-79
2022/08/18 02:40:27;;;;;;;27.20;23.95;;;;;;;20.75;60.98;98427.22;5054156;28;20370;-79
2022/08/18 02:42:53;;;;;;;18.10;16.20;;;;;;;20.78;60.72;98427.38;5057439;28;20037;-79
2022/08/18 02:45:18;;;;;;;17.90;16.00;;;;;;;20.90;60.33;98432.09;5052598;28;20045;-79
2022/08/18 02:47:50;;;;;;;37.03;30.63;;;;;;;20.38;64.17;98430.69;5050288;28;20398;-79
2022/08/18 02:50:15;;;;;;;18.70;16.80;;;;;;;20.67;61.05;98430.75;5051048;28;20516;-79
2022/08/18 02:52:41;;;;;;;17.98;16.05;;;;;;;20.72;61.22;98425.16;5051742;28;20045;-79
2022/08/18 02:55:08;;;;;;;18.40;16.45;;;;;;;20.66;61.06;98429.16;5056932;28;20435;-79
2022/08/18 02:57:33;;;;;;;20.55;18.42;;;;;;;20.74;61.38;98439.97;5051896;28;20134;-79
2022/08/18 03:00:00;;;;;;;22.10;18.02;;;;;;;20.76;61.20;98442.38;5052576;28;20508;-79
2022/08/18 03:02:25;;;;;;;22.08;18.65;;;;;;;20.56;61.59;98426.78;5062823;28;20036;-79
2022/08/18 03:04:51;;;;;;;20.05;18.05;;;;;;;20.77;61.14;98441.25;5049175;28;20039;-79
2022/08/18 03:07:17;;;;;;;21.05;18.35;;;;;;;20.76;61.01;98445.88;5050441;28;20117;-79
2022/08/18 03:09:42;;;;;;;19.38;17.38;;;;;;;20.73;61.58;98440.28;5048003;28;20024;-79
2022/08/18 03:12:09;;;;;;;22.33;19.58;;;;;;;20.58;61.75;98411.78;5064013;28;20043;-79
2022/08/18 03:14:36;;;;;;;21.90;18.85;;;;;;;20.62;61.44;98412.72;5068486;28;20041;-79
2022/08/18 03:17:07;;;;;;;20.98;18.88;;;;;;;20.74;61.58;98426.41;5061501;28;20063;-79
2022/08/18 03:19:33;;;;;;;21.73;19.13;;;;;;;19.97;64.08;98407.56;5054128;28;20025;-79
2022/08/18 03:21:59;;;;;;;24.25;18.77;;;;;;;20.40;62.42;98426.50;5053325;28;20056;-79
2022/08/18 03:24:27;;;;;;;21.15;18.95;;;;;;;20.43;62.83;98444.84;5057090;28;20182;-79
2022/08/18 03:26:55;;;;;;;24.63;18.92;;;;;;;20.56;62.09;98443.06;5043682;28;20471;-79
2022/08/18 03:29:22;;;;;;;21.20;18.88;;;;;;;20.53;62.12;98452.63;5054678;28;20043;-78
2022/08/18 03:31:48;;;;;;;23.63;19.20;;;;;;;20.28;62.71;98437.22;5054486;28;20029;-79
2022/08/18 03:34:18;;;;;;;19.67;17.58;;;;;;;20.49;62.45;98437.31;5054324;28;20041;-79
2022/08/18 03:36:44;;;;;;;19.63;17.52;;;;;;;20.33;62.39;98430.84;5043661;28;20024;-79
2022/08/18 03:39:11;;;;;;;20.52;18.33;;;;;;;20.48;62.36;98439.25;5053896;28;20024;-78
2022/08/18 03:41:39;;;;;;;20.15;17.88;;;;;;;20.55;62.28;98442.25;5056159;28;20626;-79
2022/08/18 03:44:05;;;;;;;19.65;17.55;;;;;;;20.50;61.94;98436.22;5044410;28;20098;-79
2022/08/18 03:46:31;;;;;;;21.10;18.90;;;;;;;20.21;62.50;98420.66;5052479;28;20021;-79
2022/08/18 03:48:58;;;;;;;20.50;18.38;;;;;;;20.47;62.22;98434.94;5055152;28;20377;-79
2022/08/18 03:51:26;;;;;;;52.33;39.60;;;;;;;20.02;67.85;98448.06;5056938;28;20028;-79
2022/08/18 03:53:53;;;;;;;51.83;37.70;;;;;;;19.82;67.39;98445.97;5054235;28;20491;-79
2022/08/18 03:56:23;;;;;;;40.42;32.33;;;;;;;19.81;66.30;98438.19;5059551;28;20033;-79
2022/08/18 03:58:52;;;;;;;25.98;19.75;;;;;;;20.11;63.29;98434.50;5054679;28;20035;-79
2022/08/18 04:01:22;;;;;;;22.05;18.67;;;;;;;20.37;62.65;98442.63;5058425;28;20033;-79
2022/08/18 04:03:55;;;;;;;22.10;19.75;;;;;;;20.23;62.93;98425.72;5062968;28;20036;-79
2022/08/18 04:06:25;;;;;;;28.17;25.15;;;;;;;20.13;63.65;98426.84;5061114;28;20097;-79
2022/08/18 04:08:55;;;;;;;22.70;20.08;;;;;;;20.25;63.27;98434.38;5056852;28;20059;-79
2022/08/18 04:11:22;;;;;;;24.10;18.42;;;;;;;20.11;62.93;98424.47;5055203;28;20033;-79
2022/08/18 04:13:47;;;;;;;21.92;19.48;;;;;;;20.00;64.57;98436.75;5054880;28;20032;-79
2022/08/18 04:16:13;;;;;;;22.40;19.27;;;;;;;20.33;62.93;98447.91;5025570;28;20511;-79
2022/08/18 04:18:39;;;;;;;26.05;19.50;;;;;;;20.37;62.93;98443.44;5053643;28;20511;-79
2022/08/18 04:21:07;;;;;;;22.95;19.77;;;;;;;20.25;62.93;98428.94;5060646;28;20361;-79
2022/08/18 04:23:34;;;;;;;40.67;31.83;;;;;;;19.67;68.30;98446.44;5059898;28;20085;-79
2022/08/18 04:26:00;;;;;;;22.25;19.90;;;;;;;20.01;64.08;98437.53;5051247;28;20036;-79
2022/08/18 04:28:27;;;;;;;41.42;31.27;;;;;;;19.91;65.88;98454.91;5055443;28;20037;-79
2022/08/18 04:30:53;;;;;;;24.98;21.08;;;;;;;19.93;64.26;98443.75;5064740;28;20017;-79
2022/08/18 04:33:19;;;;;;;24.70;21.05;;;;;;;20.30;63.69;98455.88;5062621;28;20043;-79
2022/08/18 04:35:45;;;;;;;24.33;21.73;;;;;;;20.27;63.67;98445.69;5060211;28;20028;-79
2022/08/18 04:38:11;;;;;;;28.20;20.75;;;;;;;20.31;63.37;98449.34;5042479;28;20488;-79
2022/08/18 04:40:37;;;;;;;29.65;23.83;;;;;;;19.79;65.89;98438.47;5061484;28;20035;-79
2022/08/18 04:43:02;;;;;;;60.30;45.83;;;;;;;19.64;69.94;98425.41;5057062;28;20103;-79
2022/08/18 04:45:28;;;;;;;27.45;23.02;;;;;;;19.39;67.20;98412.66;5052664;28;20119;-79
2022/08/18 04:47:54;;;;;;;26.70;21.65;;;;;;;20.02;65.25;98441.84;5056840;28;20508;-79
2022/08/18 04:50:20;;;;;;;49.22;39.13;;;;;;;19.55;70.40;98432.72;5048284;28;20162;-79
2022/08/18 04:55:29;;;;;;;26.55;21.73;;;;;;;20.23;64.10;98437.38;5054751;28;20412;-79
2022/08/18 04:57:56;;;;;;;26.85;21.17;;;;;;;20.35;64.07;98451.09;5043904;28;20033;-80
2022/08/18 05:00:22;;;;;;;25.42;22.85;;;;;;;20.48;64.18;98454.72;5047556;28;20024;-79
2022/08/18 05:02:48;;;;;;;25.30;22.70;;;;;;;20.41;64.34;98460.63;5058554;28;20024;-79
2022/08/18 05:05:13;;;;;;;41.05;33.95;;;;;;;20.30;64.65;98443.13;5063562;28;20033;-79
2022/08/18 05:07:44;;;;;;;26.40;22.77;;;;;;;20.31;64.46;98455.56;5052701;28;20032;-79
2022/08/18 05:10:11;;;;;;;63.28;49.53;;;;;;;19.82;72.31;98454.09;5054817;28;20395;-79
2022/08/18 05:12:40;;;;;;;71.43;54.33;;;;;;;19.19;75.97;98462.72;5061288;28;20428;-79
2022/08/18 05:15:07;;;;;;;67.68;52.75;;;;;;;18.97;76.91;98467.41;5059125;28;20036;-79
2022/08/18 05:17:38;;;;;;;54.92;42.38;;;;;;;19.09;76.17;98468.41;5061832;28;20067;-79
2022/08/18 05:20:06;;;;;;;66.65;48.45;;;;;;;19.17;75.84;98477.66;5050649;28;20051;-79
2022/08/18 05:22:38;;;;;;;58.53;47.88;;;;;;;18.94;76.48;98458.00;5055998;28;20036;-79
2022/08/18 05:25:04;;;;;;;67.82;50.75;;;;;;;18.81;77.69;98475.13;5056068;28;20024;-78
2022/08/18 05:27:32;;;;;;;26.50;23.67;;;;;;;19.10;73.00;98470.00;5044999;28;20039;-79
2022/08/18 05:29:57;;;;;;;53.17;37.78;;;;;;;19.19;75.19;98476.25;5046365;28;20025;-79
2022/08/18 05:32:22;;;;;;;62.45;50.33;;;;;;;19.06;76.88;98479.84;5050373;28;20460;-79
2022/08/18 05:34:48;;;;;;;70.78;52.60;;;;;;;18.91;77.35;98471.34;5056375;28;20393;-79
2022/08/18 05:37:31;;;;;;;25.90;23.13;;;;;;;19.08;73.43;98476.84;5042537;28;20036;-79
2022/08/18 05:40:01;;;;;;;24.52;21.63;;;;;;;19.70;68.33;98483.72;5048153;28;20385;-79
2022/08/18 05:42:29;;;;;;;23.92;21.02;;;;;;;19.97;67.32;98479.91;5054412;28;20028;-79
2022/08/18 05:44:55;;;;;;;63.20;46.20;;;;;;;19.76;73.56;98473.53;5051399;28;20147;-78
2022/08/18 05:47:26;;;;;;;65.40;51.30;;;;;;;19.54;74.39;98457.41;5040088;28;20120;-79
2022/08/18 05:49:55;;;;;;;70.05;51.00;;;;;;;19.08;76.98;98466.00;5059367;28;20037;-79
2022/08/18 05:52:30;;;;;;;49.28;38.45;;;;;;;19.23;76.36;98479.13;5053863;28;20500;-79
2022/08/18 05:57:53;;;;;;;48.47;41.25;;;;;;;19.79;71.85;98456.66;5055792;28;20263;-79
2022/08/18 06:00:22;;;;;;;26.13;21.77;;;;;;;20.32;66.28;98451.72;5055235;28;20639;-79
2022/08/18 06:03:02;;;;;;;24.92;19.80;;;;;;;20.68;65.09;98467.59;5050958;28;20028;-79
2022/08/18 06:05:37;;;;;;;53.25;39.97;;;;;;;20.58;68.57;98466.03;5059507;28;20031;-79
2022/08/18 06:08:09;;;;;;;24.90;22.23;;;;;;;20.75;65.01;98467.91;5054880;28;20025;-80
2022/08/18 06:10:36;;;;;;;62.67;48.67;;;;;;;20.58;70.54;98449.75;5057836;28;20567;-79
2022/08/18 06:13:02;;;;;;;73.55;53.75;;;;;;;20.19;73.92;98469.72;5059271;28;20301;-79
2022/08/18 06:15:44;;;;;;;69.57;51.40;;;;;;;19.88;75.32;98466.38;5059447;28;20032;-79
2022/08/18 06:18:27;;;;;;;71.20;55.97;;;;;;;19.84;75.74;98459.19;5060367;28;20024;-79
2022/08/18 06:20:53;;;;;;;66.57;50.15;;;;;;;20.02;75.61;98475.16;5062570;28;20024;-79
2022/08/18 06:23:31;;;;;;;69.82;50.42;;;;;;;20.11;74.72;98478.66;5056000;28;20036;-79
2022/08/18 06:26:09;;;;;;;71.97;53.22;;;;;;;19.88;76.13;98477.22;5062813;28;20030;-79
2022/08/18 06:29:01;;;;;;;57.67;43.33;;;;;;;19.76;76.38;98476.25;5057984;28;20028;-79
2022/08/18 06:31:39;;;;;;;73.47;54.40;;;;;;;19.91;76.81;98481.19;5059677;28;20519;-79
2022/08/18 06:34:18;;;;;;;76.28;53.53;;;;;;;19.83;77.32;98487.41;5060309;28;20024;-79
2022/08/18 06:37:05;;;;;;;42.05;34.80;;;;;;;19.86;76.52;98487.56;5062167;28;20060;-79
2022/08/18 06:39:44;;;;;;;78.20;53.72;;;;;;;20.13;77.42;98500.81;5059011;28;20548;-79
2022/08/18 06:42:09;;;;;;;24.42;21.38;;;;;;;20.63;69.48;98500.31;5051802;28;20036;-79
2022/08/18 06:44:36;;;;;;;24.75;20.65;;;;;;;20.75;67.76;98505.91;5057577;28;20095;-79
2022/08/18 06:47:25;;;;;;;58.42;40.65;;;;;;;20.93;70.84;98508.22;5055157;28;20115;-79
2022/08/18 06:50:16;;;;;;;63.08;48.58;;;;;;;21.17;70.00;98502.25;5054419;28;20036;-79
2022/08/18 06:53:03;;;;;;;77.97;55.97;;;;;;;20.96;74.98;98514.13;5068016;28;20091;-79
2022/08/18 06:55:36;;;;;;;23.73;20.13;;;;;;;21.62;64.64;98511.44;5060176;28;20028;-79
2022/08/18 06:58:06;;;;;;;76.13;57.60;;;;;;;21.50;72.94;98521.44;5054029;28;20388;-79
2022/08/18 07:00:41;;;;;;;32.63;25.38;;;;;;;21.74;69.33;98524.34;5060002;28;20024;-79
2022/08/18 07:03:34;;;;;;;26.38;23.52;;;;;;;21.27;70.19;98510.06;5049203;28;20444;-79
2022/08/18 07:06:03;;;;;;;52.78;40.58;;;;;;;21.49;66.40;98533.44;5053600;28;20040;-79
2022/08/18 07:08:37;;;;;;;54.72;39.90;;;;;;;21.19;72.54;98515.50;5068955;28;20032;-79
2022/08/18 07:11:22;;;;;;;57.35;43.00;;;;;;;21.41;68.24;98509.81;5042941;28;20028;-79
2022/08/18 07:13:55;;;;;;;99.50;69.70;;;;;;;21.31;73.90;98523.75;5058746;28;20032;-79
2022/08/18 07:16:26;;;;;;;45.40;37.90;;;;;;;21.61;67.16;98522.66;5038604;28;20064;-79
2022/08/18 07:18:52;;;;;;;70.18;53.38;;;;;;;21.45;73.31;98514.25;5077608;28;20105;-79
2022/08/18 07:21:31;;;;;;;55.55;42.15;;;;;;;21.31;71.50;98510.19;5041307;28;20507;-79
2022/08/18 07:24:05;;;;;;;35.63;30.08;;;;;;;21.94;65.53;98511.94;5043458;28;20059;-79
2022/08/18 07:26:50;;;;;;;34.25;29.60;;;;;;;22.10;64.42;98505.59;5059440;28;20035;-79
2022/08/18 07:29:15;;;;;;;36.47;32.30;;;;;;;22.10;65.20;98508.31;5059350;28;20029;-79
2022/08/18 07:31:47;;;;;;;37.55;31.73;;;;;;;21.96;66.25;98493.38;5054678;28;20400;-79
2022/08/18 07:34:36;;;;;;;74.93;55.25;;;;;;;21.83;66.66;98484.34;5054652;28;20475;-79
2022/08/18 07:37:07;;;;;;;40.25;33.88;;;;;;;21.87;68.53;98501.59;5058632;28;20052;-79
2022/08/18 07:39:39;;;;;;;76.78;59.33;;;;;;;21.77;71.13;98501.16;5061973;28;20033;-79
2022/08/18 07:42:23;;;;;;;55.47;44.30;;;;;;;21.77;67.60;98496.53;5059263;28;20067;-79
2022/08/18 07:44:49;;;;;;;50.65;40.80;;;;;;;22.19;66.17;98503.56;5075550;28;20043;-79
2022/08/18 07:47:30;;;;;;;80.50;57.78;;;;;;;21.95;67.30;98499.94;5064072;28;20032;-79
2022/08/18 07:49:57;;;;;;;61.90;48.72;;;;;;;22.18;66.74;98509.34;5056349;28;20494;-79
2022/08/18 07:52:36;;;;;;;71.57;54.22;;;;;;;22.17;66.69;98500.38;5042644;28;20033;-79
2022/08/18 07:55:27;;;;;;;50.22;39.53;;;;;;;22.39;66.48;98513.63;5054683;28;20017;-79
2022/08/18 07:58:24;;;;;;;54.65;42.72;;;;;;;22.40;67.56;98506.28;5053585;28;20069;-79
2022/08/18 08:00:55;;;;;;;61.50;47.13;;;;;;;22.29;67.75;98507.81;5076535;28;20085;-79
2022/08/18 08:03:23;;;;;;;50.25;41.45;;;;;;;22.53;65.84;98520.72;5056249;28;20131;-79
2022/08/18 08:06:15;;;;;;;59.53;45.00;;;;;;;22.46;66.10;98517.75;5058779;28;20036;-79
2022/08/18 08:09:02;;;;;;;56.38;44.63;;;;;;;22.49;66.84;98517.09;5053216;28;20056;-79
2022/08/18 08:11:38;;;;;;;63.20;49.45;;;;;;;22.38;68.18;98508.53;5062814;28;20032;-79
2022/08/18 08:14:17;;;;;;;56.03;45.75;;;;;;;22.45;66.69;98499.84;5056994;28;21028;-79
2022/08/18 08:16:56;;;;;;;89.05;61.67;;;;;;;22.26;69.34;98505.75;5060356;28;20037;-79
2022/08/18 08:20:20;;;;;;;66.78;51.92;;;;;;;22.66;66.55;98508.78;5059275;28;20028;-79
2022/08/18 08:22:58;;;;;;;64.32;48.72;;;;;;;22.85;66.03;98498.16;4996682;28;20397;-79
2022/08/18 08:25:44;;;;;;;60.05;48.63;;;;;;;22.79;66.60;98515.84;5060050;28;20484;-79
2022/08/18 08:28:20;;;;;;;84.65;64.85;;;;;;;22.80;68.36;98523.66;5058277;28;20082;-79
2022/08/18 08:30:51;;;;;;;61.92;47.60;;;;;;;23.00;66.36;98505.69;5060728;28;20468;-79
2022/08/18 08:33:23;;;;;;;74.35;58.13;;;;;;;22.88;67.90;98530.97;5062058;28;20032;-79
2022/08/18 08:36:05;;;;;;;68.75;53.00;;;;;;;23.19;66.05;98525.03;5059587;28;20507;-79
2022/08/18 08:38:44;;;;;;;57.47;48.03;;;;;;;23.26;65.67;98530.72;5055149;28;20108;-79
2022/08/18 08:41:20;;;;;;;60.92;49.30;;;;;;;23.04;66.46;98533.84;5064657;28;20148;-79
2022/08/18 08:44:01;;;;;;;56.03;48.00;;;;;;;23.10;66.91;98521.59;5059517;28;20025;-79
2022/08/18 08:46:30;;;;;;;60.55;49.85;;;;;;;23.20;66.14;98529.31;5055380;28;20033;-79
2022/08/18 08:49:06;;;;;;;55.13;46.40;;;;;;;23.20;65.26;98510.25;5053402;28;20120;-79
2022/08/18 08:51:38;;;;;;;58.75;50.30;;;;;;;23.42;64.86;98536.28;5059627;28;20047;-79
2022/08/18 08:54:15;;;;;;;52.65;44.10;;;;;;;23.50;64.58;98544.34;5052678;28;20318;-79
2022/08/18 08:56:46;;;;;;;53.30;42.17;;;;;;;23.51;64.68;98540.50;5053380;28;20060;-79
2022/08/18 08:59:15;;;;;;;57.88;47.72;;;;;;;23.39;66.72;98543.25;5049295;28;20549;-79
2022/08/18 09:01:49;;;;;;;59.03;48.17;;;;;;;23.21;65.65;98536.38;5057074;28;20032;-79
2022/08/18 09:04:54;;;;;;;45.95;40.88;;;;;;;23.22;66.45;98523.56;5056045;28;20028;-79
2022/08/18 09:07:46;;;;;;;49.83;42.70;;;;;;;23.51;64.76;98543.25;5064009;28;20358;-79
2022/08/18 09:10:33;;;;;;;61.53;50.80;;;;;;;23.44;66.48;98553.91;5059095;28;20384;-79
2022/08/18 09:13:58;;;;;;;51.20;43.03;;;;;;;23.65;64.35;98557.34;5052370;28;20028;-79
2022/08/18 09:16:37;;;;;;;48.10;40.47;;;;;;;23.82;63.90;98568.00;5059050;28;20708;-79
2022/08/18 09:19:32;;;;;;;60.75;51.10;;;;;;;23.80;64.26;98564.00;5045619;28;20289;-79
2022/08/18 09:22:15;;;;;;;43.65;38.80;;;;;;;24.08;63.13;98564.91;5057488;28;20155;-79
2022/08/18 09:24:51;;;;;;;56.80;47.55;;;;;;;24.16;62.58;98561.25;5058773;28;20068;-79
2022/08/18 09:27:40;;;;;;;45.05;38.78;;;;;;;24.44;62.11;98569.50;5047560;28;20488;-79
2022/08/18 09:30:27;;;;;;;42.53;36.35;;;;;;;24.37;61.61;98572.81;5049101;28;20064;-79
2022/08/18 09:33:12;;;;;;;54.20;44.97;;;;;;;24.23;62.85;98577.03;5057645;28;20063;-79
2022/08/18 09:36:19;;;;;;;43.83;39.03;;;;;;;24.26;62.94;98568.19;5064360;28;20170;-79
2022/08/18 09:41:49;;;;;;;48.13;39.25;;;;;;;24.31;62.20;98578.88;5062686;28;20036;-79
2022/08/18 09:44:47;;;;;;;57.35;45.28;;;;;;;24.30;62.51;98590.91;5056991;28;20078;-79
2022/08/18 09:47:36;;;;;;;43.05;37.33;;;;;;;24.49;61.52;98591.06;5057208;28;20078;-79
2022/08/18 09:50:04;;;;;;;44.92;37.88;;;;;;;24.43;63.12;98595.19;5055903;28;20036;-79
2022/08/18 09:52:34;;;;;;;39.20;34.80;;;;;;;24.60;61.17;98592.19;5055798;28;20091;-79
2022/08/18 09:55:04;;;;;;;41.25;36.72;;;;;;;24.59;60.78;98598.81;5062641;28;20415;-79
2022/08/18 09:57:32;;;;;;;53.00;42.10;;;;;;;24.51;61.27;98591.53;5054032;28;20047;-79
2022/08/18 10:00:06;;;;;;;64.40;50.22;;;;;;;24.63;61.79;98610.59;5051668;28;20391;-79
2022/08/18 10:02:31;;;;;;;48.78;38.53;;;;;;;24.85;60.33;98601.13;5062995;28;20063;-79
2022/08/18 10:05:18;;;;;;;42.35;36.85;;;;;;;24.93;59.88;98602.91;5065765;28;20108;-80
2022/08/18 10:07:55;;;;;;;42.83;38.03;;;;;;;24.76;60.31;98611.38;5066960;28;20128;-79
2022/08/18 10:10:43;;;;;;;43.60;37.38;;;;;;;24.64;60.37;98601.25;5066782;28;20396;-79
2022/08/18 10:13:33;;;;;;;61.20;48.45;;;;;;;24.67;60.58;98616.97;5059194;28;20021;-79
2022/08/18 10:16:13;;;;;;;44.33;39.08;;;;;;;24.77;60.24;98607.53;5054642;28;20074;-79
2022/08/18 10:19:09;;;;;;;43.22;37.55;;;;;;;24.82;60.09;98610.00;5056342;28;20081;-79
2022/08/18 10:22:03;;;;;;;42.65;36.67;;;;;;;24.76;60.01;98611.38;5053521;28;20115;-79
2022/08/18 10:24:36;;;;;;;42.22;37.22;;;;;;;24.64;60.45;98617.63;5050121;28;20555;-79
2022/08/18 10:27:24;;;;;;;45.08;37.85;;;;;;;24.57;60.11;98617.47;5061466;28;20032;-79
2022/08/18 10:29:52;;;;;;;43.53;37.80;;;;;;;24.43;60.65;98611.56;5052164;28;20045;-79
2022/08/18 10:32:24;;;;;;;43.35;37.20;;;;;;;24.46;60.63;98599.97;5060826;28;20037;-79
2022/08/18 10:34:52;;;;;;;44.60;37.60;;;;;;;24.29;60.77;98594.75;5060020;28;20024;-79
2022/08/18 10:37:45;;;;;;;40.33;35.97;;;;;;;24.46;60.58;98594.50;5054426;28;20035;-79
2022/08/18 10:40:13;;;;;;;42.63;37.03;;;;;;;24.39;60.90;98588.84;5048779;28;20081;-79
2022/08/18 10:43:08;;;;;;;45.35;38.28;;;;;;;24.23;61.55;98579.78;5051272;28;20024;-79
2022/08/18 10:45:46;;;;;;;47.08;40.50;;;;;;;24.16;62.98;98577.63;5050626;28;20170;-79
2022/08/18 10:48:28;;;;;;;63.92;51.25;;;;;;;23.83;64.69;98566.84;5056299;28;20124;-79
2022/08/18 10:51:15;;;;;;;60.10;47.97;;;;;;;23.78;62.87;98569.03;5062236;28;20114;-79
2022/08/18 10:53:40;;;;;;;69.80;52.00;;;;;;;23.71;64.57;98566.06;5057790;28;20025;-79
2022/08/18 10:56:10;;;;;;;42.85;37.65;;;;;;;24.02;61.83;98540.94;5061011;28;20028;-79
2022/08/18 10:59:07;;;;;;;67.53;49.70;;;;;;;23.97;62.54;98560.25;5056532;28;20037;-79
2022/08/18 11:01:51;;;;;;;43.88;36.85;;;;;;;24.16;62.18;98563.19;5063365;28;20155;-80
2022/08/18 11:04:33;;;;;;;78.90;55.95;;;;;;;23.87;63.78;98553.34;5057391;28;20028;-80
2022/08/18 11:07:29;;;;;;;41.97;36.60;;;;;;;23.67;67.05;98549.59;5073955;28;20029;-80
2022/08/18 11:09:57;;;;;;;48.63;40.03;;;;;;;23.81;64.37;98546.50;5051503;28;20131;-79
2022/08/18 11:12:47;;;;;;;46.63;40.08;;;;;;;24.10;63.56;98540.81;5061107;28;20703;-80
2022/08/18 11:15:22;;;;;;;74.40;55.05;;;;;;;23.72;65.63;98537.69;5061101;28;20025;-81
2022/08/18 11:17:47;;;;;;;60.92;44.95;;;;;;;23.59;64.47;98536.88;5056415;28;20044;-81
2022/08/18 11:20:16;;;;;;;48.13;38.05;;;;;;;23.60;63.99;98530.28;5056590;28;20114;-81
2022/08/18 11:22:52;;;;;;;58.50;44.20;;;;;;;23.56;65.84;98521.22;5060318;28;20127;-81
2022/08/18 11:25:23;;;;;;;77.60;53.53;;;;;;;23.21;68.19;98500.97;5057450;28;20028;-81
2022/08/18 11:27:49;;;;;;;70.70;50.97;;;;;;;23.11;68.10;98510.38;5059561;28;20111;-80
2022/08/18 11:30:16;;;;;;;46.05;37.55;;;;;;;23.32;65.40;98507.56;5063442;28;20033;-80
2022/08/18 11:32:42;;;;;;;49.38;38.58;;;;;;;23.04;66.78;98490.28;5055414;28;20434;-80
2022/08/18 11:35:15;;;;;;;65.53;47.05;;;;;;;22.98;68.46;98489.69;5045459;28;20036;-79
2022/08/18 11:37:43;;;;;;;53.78;40.35;;;;;;;22.99;67.74;98496.75;5044828;28;20561;-79
2022/08/18 11:40:34;;;;;;;74.05;50.88;;;;;;;22.81;70.47;98492.63;5064866;28;20445;-80
2022/08/18 11:43:15;;;;;;;85.60;57.05;;;;;;;22.15;73.55;98512.72;5052385;28;20029;-79
2022/08/18 11:45:44;;;;;;;67.25;47.35;;;;;;;22.24;72.92;98511.53;5061553;28;20022;-79
2022/08/18 11:48:36;;;;;;;91.72;59.42;;;;;;;21.92;75.88;98489.72;5057465;28;20024;-79
2022/08/18 11:51:10;;;;;;;87.80;56.15;;;;;;;21.85;76.02;98512.00;5060685;28;20056;-79
2022/08/18 11:53:50;;;;;;;80.55;54.92;;;;;;;21.74;75.75;98518.09;5048449;28;20116;-79
2022/08/18 11:56:19;;;;;;;90.20;57.40;;;;;;;21.69;75.66;98519.09;5055155;28;20032;-78
2022/08/18 11:58:47;;;;;;;81.43;54.63;;;;;;;21.88;73.92;98515.97;5059365;28;20028;-78